sensor_id;sensor_type;location;lat;lon;timestamp;pressure;altitude;pressure_sealevel;temperature;humidity
34500;BME280;20745;50.882;6.962;2022-07-29T00:00:17;100892.34;;;20.27;57.74
34500;BME280;20745;50.882;6.962;2022-07-29T00:02:44;100889.38;;;20.28;57.30
34500;BME280;20745;50.882;6.962;2022-07-29T00:05:18;100885.81;;;20.28;57.88
34500;BME280;20745;50.882;6.962;2022-07-29T00:07:46;100888.06;;;20.31;59.01
34500;BME280;20745;50.882;6.962;2022-07-29T00:10:13;100884.25;;;20.20;60.14
34500;BME280;20745;50.882;6.962;2022-07-29T00:12:40;100882.81;;;20.29;59.08
34500;BME280;20745;50.882;6.962;2022-07-29T00:15:07;100876.81;;;20.32;58.11
34500;BME280;20745;50.882;6.962;2022-07-29T00:17:35;100873.03;;;20.33;58.04
34500;BME280;20745;50.882;6.962;2022-07-29T00:20:03;100866.81;;;20.38;57.87
34500;BME280;20745;50.882;6.962;2022-07-29T00:22:30;100859.88;;;20.35;58.62
34500;BME280;20745;50.882;6.962;2022-07-29T00:25:00;100868.59;;;20.32;58.84
34500;BME280;20745;50.882;6.962;2022-07-29T00:27:27;100871.34;;;20.32;59.06
34500;BME280;20745;50.882;6.962;2022-07-29T00:29:54;100868.50;;;20.27;58.61
34500;BME280;20745;50.882;6.962;2022-07-29T00:32:21;100866.00;;;20.26;58.81
34500;BME280;20745;50.882;6.962;2022-07-29T00:34:49;100859.78;;;20.30;58.65
34500;BME280;20745;50.882;6.962;2022-07-29T00:37:35;100867.88;;;20.37;58.41
34500;BME280;20745;50.882;6.962;2022-07-29T00:40:03;100852.75;;;20.34;58.53
34500;BME280;20745;50.882;6.962;2022-07-29T00:42:30;100844.75;;;20.33;59.01
34500;BME280;20745;50.882;6.962;2022-07-29T00:44:57;100825.72;;;20.15;58.82
34500;BME280;20745;50.882;6.962;2022-07-29T00:47:24;100839.25;;;20.33;59.15
34500;BME280;20745;50.882;6.962;2022-07-29T00:49:52;100837.25;;;20.28;58.63
34500;BME280;20745;50.882;6.962;2022-07-29T00:52:20;100837.47;;;20.27;58.85
34500;BME280;20745;50.882;6.962;2022-07-29T00:54:47;100834.97;;;20.25;59.14
34500;BME280;20745;50.882;6.962;2022-07-29T00:57:14;100838.09;;;20.29;59.09
34500;BME280;20745;50.882;6.962;2022-07-29T00:59:41;100832.00;;;20.27;58.94
34500;BME280;20745;50.882;6.962;2022-07-29T01:02:08;100833.44;;;20.29;58.85
34500;BME280;20745;50.882;6.962;2022-07-29T01:04:36;100816.25;;;20.22;59.00
34500;BME280;20745;50.882;6.962;2022-07-29T01:07:03;100823.66;;;20.22;59.57
34500;BME280;20745;50.882;6.962;2022-07-29T01:09:32;100810.69;;;20.17;59.61
34500;BME280;20745;50.882;6.962;2022-07-29T01:12:25;100807.94;;;20.17;60.35
34500;BME280;20745;50.882;6.962;2022-07-29T01:14:54;100808.06;;;20.11;60.33
34500;BME280;20745;50.882;6.962;2022-07-29T01:20:16;100806.59;;;20.08;60.71
34500;BME280;20745;50.882;6.962;2022-07-29T01:23:08;100803.63;;;20.10;60.57
34500;BME280;20745;50.882;6.962;2022-07-29T01:26:12;100806.38;;;20.10;60.94
34500;BME280;20745;50.882;6.962;2022-07-29T01:28:57;100806.59;;;20.08;60.68
34500;BME280;20745;50.882;6.962;2022-07-29T01:31:56;100813.06;;;20.14;60.44
34500;BME280;20745;50.882;6.962;2022-07-29T01:34:40;100805.44;;;20.16;59.90
34500;BME280;20745;50.882;6.962;2022-07-29T01:39:59;100809.81;;;20.05;62.01
34500;BME280;20745;50.882;6.962;2022-07-29T01:42:40;100803.75;;;20.03;62.02
34500;BME280;20745;50.882;6.962;2022-07-29T01:45:15;100793.38;;;20.05;61.02
34500;BME280;20745;50.882;6.962;2022-07-29T01:47:56;100802.59;;;19.99;61.10
34500;BME280;20745;50.882;6.962;2022-07-29T01:50:38;100799.34;;;20.02;61.67
34500;BME280;20745;50.882;6.962;2022-07-29T01:53:09;100795.19;;;20.00;61.11
34500;BME280;20745;50.882;6.962;2022-07-29T01:55:40;100796.72;;;20.07;60.34
34500;BME280;20745;50.882;6.962;2022-07-29T01:58:10;100793.06;;;20.13;60.10
34500;BME280;20745;50.882;6.962;2022-07-29T02:00:40;100799.47;;;20.07;60.29
34500;BME280;20745;50.882;6.962;2022-07-29T02:03:11;100790.53;;;20.00;60.98
34500;BME280;20745;50.882;6.962;2022-07-29T02:05:42;100786.63;;;19.96;60.75
34500;BME280;20745;50.882;6.962;2022-07-29T02:08:11;100781.84;;;19.92;61.23
34500;BME280;20745;50.882;6.962;2022-07-29T02:10:45;100780.31;;;19.84;62.18
34500;BME280;20745;50.882;6.962;2022-07-29T02:13:19;100783.75;;;19.80;61.97
34500;BME280;20745;50.882;6.962;2022-07-29T02:15:48;100784.72;;;19.74;62.29
34500;BME280;20745;50.882;6.962;2022-07-29T02:18:22;100781.63;;;19.70;61.88
34500;BME280;20745;50.882;6.962;2022-07-29T02:20:56;100784.63;;;19.69;61.70
34500;BME280;20745;50.882;6.962;2022-07-29T02:23:30;100784.63;;;19.69;61.92
34500;BME280;20745;50.882;6.962;2022-07-29T02:26:19;100780.69;;;19.65;62.03
34500;BME280;20745;50.882;6.962;2022-07-29T02:28:52;100781.97;;;19.62;62.70
34500;BME280;20745;50.882;6.962;2022-07-29T02:31:25;100778.44;;;19.50;62.73
34500;BME280;20745;50.882;6.962;2022-07-29T02:33:53;100782.25;;;19.38;62.53
34500;BME280;20745;50.882;6.962;2022-07-29T02:36:22;100771.38;;;19.43;62.00
34500;BME280;20745;50.882;6.962;2022-07-29T02:38:51;100773.41;;;19.47;62.35
34500;BME280;20745;50.882;6.962;2022-07-29T02:41:24;100781.50;;;19.42;61.95
34500;BME280;20745;50.882;6.962;2022-07-29T02:43:55;100781.38;;;19.37;63.20
34500;BME280;20745;50.882;6.962;2022-07-29T02:46:31;100784.44;;;19.17;64.03
34500;BME280;20745;50.882;6.962;2022-07-29T02:49:13;100784.69;;;19.16;63.49
34500;BME280;20745;50.882;6.962;2022-07-29T02:51:45;100779.53;;;19.08;65.04
34500;BME280;20745;50.882;6.962;2022-07-29T02:54:22;100783.34;;;19.07;66.06
34500;BME280;20745;50.882;6.962;2022-07-29T02:56:51;100798.94;;;19.06;66.66
34500;BME280;20745;50.882;6.962;2022-07-29T02:59:25;100800.84;;;19.06;66.95
34500;BME280;20745;50.882;6.962;2022-07-29T03:01:55;100812.84;;;19.05;66.31
34500;BME280;20745;50.882;6.962;2022-07-29T03:04:24;100807.38;;;19.05;65.93
34500;BME280;20745;50.882;6.962;2022-07-29T03:06:53;100820.00;;;19.06;65.52
34500;BME280;20745;50.882;6.962;2022-07-29T03:09:21;100802.84;;;18.99;64.95
34500;BME280;20745;50.882;6.962;2022-07-29T03:11:50;100818.06;;;18.95;65.67
34500;BME280;20745;50.882;6.962;2022-07-29T03:14:24;100823.06;;;18.98;66.17
34500;BME280;20745;50.882;6.962;2022-07-29T03:16:51;100817.84;;;19.08;65.21
34500;BME280;20745;50.882;6.962;2022-07-29T03:19:19;100819.16;;;19.05;65.94
34500;BME280;20745;50.882;6.962;2022-07-29T03:21:47;100812.59;;;18.95;65.73
34500;BME280;20745;50.882;6.962;2022-07-29T03:24:29;100814.50;;;18.94;64.73
34500;BME280;20745;50.882;6.962;2022-07-29T03:26:57;100810.09;;;19.05;63.75
34500;BME280;20745;50.882;6.962;2022-07-29T03:29:24;100803.59;;;19.06;63.15
34500;BME280;20745;50.882;6.962;2022-07-29T03:32:04;100809.06;;;19.06;63.55
34500;BME280;20745;50.882;6.962;2022-07-29T03:34:37;100809.53;;;19.03;63.30
34500;BME280;20745;50.882;6.962;2022-07-29T03:37:05;100812.84;;;19.05;63.07
34500;BME280;20745;50.882;6.962;2022-07-29T03:39:36;100812.84;;;19.05;63.24
34500;BME280;20745;50.882;6.962;2022-07-29T03:42:06;100803.69;;;19.11;63.00
34500;BME280;20745;50.882;6.962;2022-07-29T03:44:37;100819.91;;;19.12;62.46
34500;BME280;20745;50.882;6.962;2022-07-29T03:47:06;100814.56;;;19.17;62.13
34500;BME280;20745;50.882;6.962;2022-07-29T03:49:40;100813.34;;;19.13;62.71
34500;BME280;20745;50.882;6.962;2022-07-29T03:52:07;100816.94;;;19.14;62.16
34500;BME280;20745;50.882;6.962;2022-07-29T03:54:36;100812.66;;;19.18;62.63
34500;BME280;20745;50.882;6.962;2022-07-29T03:57:05;100814.31;;;19.19;61.90
34500;BME280;20745;50.882;6.962;2022-07-29T03:59:33;100810.53;;;19.20;61.85
34500;BME280;20745;50.882;6.962;2022-07-29T04:02:02;100811.81;;;19.17;61.63
34500;BME280;20745;50.882;6.962;2022-07-29T04:04:31;100811.22;;;19.15;61.55
34500;BME280;20745;50.882;6.962;2022-07-29T04:07:00;100814.91;;;19.21;61.09
34500;BME280;20745;50.882;6.962;2022-07-29T04:09:27;100824.53;;;19.12;61.14
34500;BME280;20745;50.882;6.962;2022-07-29T04:12:00;100825.88;;;19.21;60.97
34500;BME280;20745;50.882;6.962;2022-07-29T04:14:31;100823.38;;;19.19;60.72
34500;BME280;20745;50.882;6.962;2022-07-29T04:17:05;100819.31;;;19.22;60.37
34500;BME280;20745;50.882;6.962;2022-07-29T04:19:32;100818.25;;;19.23;60.14
34500;BME280;20745;50.882;6.962;2022-07-29T04:22:00;100824.78;;;19.22;59.92
34500;BME280;20745;50.882;6.962;2022-07-29T04:24:28;100820.03;;;19.17;60.05
34500;BME280;20745;50.882;6.962;2022-07-29T04:26:57;100821.00;;;19.23;59.85
34500;BME280;20745;50.882;6.962;2022-07-29T04:29:24;100818.34;;;19.16;59.78
34500;BME280;20745;50.882;6.962;2022-07-29T04:31:51;100826.34;;;19.18;59.37
34500;BME280;20745;50.882;6.962;2022-07-29T04:34:27;100822.03;;;19.22;58.93
34500;BME280;20745;50.882;6.962;2022-07-29T04:36:55;100835.06;;;19.26;58.88
34500;BME280;20745;50.882;6.962;2022-07-29T04:39:27;100832.72;;;19.30;58.50
34500;BME280;20745;50.882;6.962;2022-07-29T04:41:56;100822.84;;;19.29;58.55
34500;BME280;20745;50.882;6.962;2022-07-29T04:44:25;100830.94;;;19.36;58.42
34500;BME280;20745;50.882;6.962;2022-07-29T04:46:56;100824.59;;;19.35;58.55
34500;BME280;20745;50.882;6.962;2022-07-29T04:49:23;100833.78;;;19.41;58.60
34500;BME280;20745;50.882;6.962;2022-07-29T04:51:51;100837.13;;;19.43;58.18
34500;BME280;20745;50.882;6.962;2022-07-29T04:54:18;100841.28;;;19.45;58.43
34500;BME280;20745;50.882;6.962;2022-07-29T04:56:45;100845.72;;;19.46;57.86
34500;BME280;20745;50.882;6.962;2022-07-29T04:59:16;100836.44;;;19.47;58.08
34500;BME280;20745;50.882;6.962;2022-07-29T05:01:44;100845.00;;;19.51;57.85
34500;BME280;20745;50.882;6.962;2022-07-29T05:04:11;100847.25;;;19.54;57.98
34500;BME280;20745;50.882;6.962;2022-07-29T05:06:39;100841.06;;;19.58;57.56
34500;BME280;20745;50.882;6.962;2022-07-29T05:09:07;100848.81;;;19.61;57.29
34500;BME280;20745;50.882;6.962;2022-07-29T05:11:34;100853.13;;;19.69;57.73
34500;BME280;20745;50.882;6.962;2022-07-29T05:14:02;100852.75;;;19.65;57.16
34500;BME280;20745;50.882;6.962;2022-07-29T05:16:29;100866.47;;;19.77;57.00
34500;BME280;20745;50.882;6.962;2022-07-29T05:18:56;100866.22;;;19.78;56.39
34500;BME280;20745;50.882;6.962;2022-07-29T05:21:23;100864.09;;;19.80;56.58
34500;BME280;20745;50.882;6.962;2022-07-29T05:23:51;100864.09;;;19.80;56.40
34500;BME280;20745;50.882;6.962;2022-07-29T05:26:22;100865.28;;;19.73;56.38
34500;BME280;20745;50.882;6.962;2022-07-29T05:28:50;100867.19;;;19.84;56.62
34500;BME280;20745;50.882;6.962;2022-07-29T05:31:17;100861.22;;;19.87;55.91
34500;BME280;20745;50.882;6.962;2022-07-29T05:33:44;100867.41;;;19.82;56.04
34500;BME280;20745;50.882;6.962;2022-07-29T05:36:12;100862.53;;;19.84;56.09
34500;BME280;20745;50.882;6.962;2022-07-29T05:38:44;100875.78;;;19.87;55.47
34500;BME280;20745;50.882;6.962;2022-07-29T05:41:11;100886.84;;;19.92;55.39
34500;BME280;20745;50.882;6.962;2022-07-29T05:43:38;100891.38;;;19.98;55.32
34500;BME280;20745;50.882;6.962;2022-07-29T05:46:05;100895.44;;;20.07;55.49
34500;BME280;20745;50.882;6.962;2022-07-29T05:48:32;100897.38;;;20.18;55.84
34500;BME280;20745;50.882;6.962;2022-07-29T05:51:00;100900.25;;;20.23;55.96
34500;BME280;20745;50.882;6.962;2022-07-29T05:53:28;100910.13;;;20.24;54.79
34500;BME280;20745;50.882;6.962;2022-07-29T05:56:05;100922.06;;;20.18;55.01
34500;BME280;20745;50.882;6.962;2022-07-29T05:58:32;100929.94;;;20.26;55.31
34500;BME280;20745;50.882;6.962;2022-07-29T06:01:00;100921.09;;;20.24;55.05
34500;BME280;20745;50.882;6.962;2022-07-29T06:03:31;100920.16;;;20.30;55.54
34500;BME280;20745;50.882;6.962;2022-07-29T06:05:58;100931.94;;;20.42;54.88
34500;BME280;20745;50.882;6.962;2022-07-29T06:08:25;100936.22;;;20.50;55.33
34500;BME280;20745;50.882;6.962;2022-07-29T06:10:52;100934.16;;;20.57;56.03
34500;BME280;20745;50.882;6.962;2022-07-29T06:13:19;100942.88;;;20.65;55.79
34500;BME280;20745;50.882;6.962;2022-07-29T06:15:52;100935.47;;;20.66;55.00
34500;BME280;20745;50.882;6.962;2022-07-29T06:18:19;100942.28;;;20.63;55.49
34500;BME280;20745;50.882;6.962;2022-07-29T06:20:47;100939.06;;;20.66;56.20
34500;BME280;20745;50.882;6.962;2022-07-29T06:23:19;100940.03;;;20.60;56.45
34500;BME280;20745;50.882;6.962;2022-07-29T06:25:46;100941.00;;;20.54;56.24
34500;BME280;20745;50.882;6.962;2022-07-29T06:28:17;100935.63;;;20.48;57.21
34500;BME280;20745;50.882;6.962;2022-07-29T06:30:46;100941.59;;;20.45;56.79
34500;BME280;20745;50.882;6.962;2022-07-29T06:33:17;100938.16;;;20.38;56.81
34500;BME280;20745;50.882;6.962;2022-07-29T06:35:45;100924.44;;;20.38;57.02
34500;BME280;20745;50.882;6.962;2022-07-29T06:38:21;100931.59;;;20.27;57.34
34500;BME280;20745;50.882;6.962;2022-07-29T06:41:00;100925.00;;;20.05;57.92
34500;BME280;20745;50.882;6.962;2022-07-29T06:43:36;100931.22;;;20.12;57.91
34500;BME280;20745;50.882;6.962;2022-07-29T06:46:23;100939.81;;;20.16;58.32
34500;BME280;20745;50.882;6.962;2022-07-29T06:48:51;100939.59;;;20.17;58.95
34500;BME280;20745;50.882;6.962;2022-07-29T06:51:19;100940.78;;;20.21;59.34
34500;BME280;20745;50.882;6.962;2022-07-29T06:53:51;100934.34;;;20.27;59.92
34500;BME280;20745;50.882;6.962;2022-07-29T06:56:30;100936.84;;;20.29;60.43
34500;BME280;20745;50.882;6.962;2022-07-29T06:59:14;100923.13;;;20.17;60.92
34500;BME280;20745;50.882;6.962;2022-07-29T07:01:49;100900.44;;;20.10;60.48
34500;BME280;20745;50.882;6.962;2022-07-29T07:04:24;100922.41;;;20.22;60.70
34500;BME280;20745;50.882;6.962;2022-07-29T07:06:53;100931.00;;;20.25;60.47
34500;BME280;20745;50.882;6.962;2022-07-29T07:09:22;100928.63;;;20.17;60.25
34500;BME280;20745;50.882;6.962;2022-07-29T07:11:49;100941.25;;;20.30;60.02
34500;BME280;20745;50.882;6.962;2022-07-29T07:14:16;100941.69;;;20.50;59.52
34500;BME280;20745;50.882;6.962;2022-07-29T07:16:50;100937.75;;;20.69;59.39
34500;BME280;20745;50.882;6.962;2022-07-29T07:19:24;100947.56;;;20.93;59.16
34500;BME280;20745;50.882;6.962;2022-07-29T07:21:52;100924.44;;;21.00;59.67
34500;BME280;20745;50.882;6.962;2022-07-29T07:24:21;100920.09;;;21.04;59.87
34500;BME280;20745;50.882;6.962;2022-07-29T07:26:54;100915.09;;;21.01;57.71
34500;BME280;20745;50.882;6.962;2022-07-29T07:29:25;100920.09;;;21.04;57.86
34500;BME280;20745;50.882;6.962;2022-07-29T07:31:52;100942.19;;;21.09;57.51
34500;BME280;20745;50.882;6.962;2022-07-29T07:34:26;100947.28;;;21.17;58.04
34500;BME280;20745;50.882;6.962;2022-07-29T07:36:55;100945.63;;;21.16;58.94
34500;BME280;20745;50.882;6.962;2022-07-29T07:39:23;100948.13;;;21.18;59.86
34500;BME280;20745;50.882;6.962;2022-07-29T07:41:50;100951.13;;;21.16;60.22
34500;BME280;20745;50.882;6.962;2022-07-29T07:44:21;100951.59;;;21.13;60.01
34500;BME280;20745;50.882;6.962;2022-07-29T07:46:49;100958.06;;;21.07;60.40
34500;BME280;20745;50.882;6.962;2022-07-29T07:49:17;100958.81;;;20.91;62.70
34500;BME280;20745;50.882;6.962;2022-07-29T07:51:44;100951.28;;;20.87;63.30
34500;BME280;20745;50.882;6.962;2022-07-29T07:54:20;100949.66;;;20.74;64.26
34500;BME280;20745;50.882;6.962;2022-07-29T07:56:47;100954.22;;;20.69;64.65
34500;BME280;20745;50.882;6.962;2022-07-29T07:59:23;100946.69;;;20.64;65.09
34500;BME280;20745;50.882;6.962;2022-07-29T08:01:50;100942.50;;;20.73;64.49
34500;BME280;20745;50.882;6.962;2022-07-29T08:04:23;100935.13;;;20.62;64.43
34500;BME280;20745;50.882;6.962;2022-07-29T08:06:56;100920.47;;;20.45;65.27
34500;BME280;20745;50.882;6.962;2022-07-29T08:09:25;100922.75;;;20.37;65.93
34500;BME280;20745;50.882;6.962;2022-07-29T08:11:58;100920.25;;;20.12;66.68
34500;BME280;20745;50.882;6.962;2022-07-29T08:14:26;100921.09;;;20.13;67.54
34500;BME280;20745;50.882;6.962;2022-07-29T08:16:53;100921.00;;;20.19;66.94
34500;BME280;20745;50.882;6.962;2022-07-29T08:19:20;100929.69;;;20.28;66.75
34500;BME280;20745;50.882;6.962;2022-07-29T08:21:47;100922.66;;;20.32;66.07
34500;BME280;20745;50.882;6.962;2022-07-29T08:24:15;100926.44;;;20.42;66.53
34500;BME280;20745;50.882;6.962;2022-07-29T08:27:00;100915.22;;;20.32;66.88
34500;BME280;20745;50.882;6.962;2022-07-29T08:29:28;100911.91;;;20.30;66.66
34500;BME280;20745;50.882;6.962;2022-07-29T08:31:55;100913.00;;;20.29;67.29
34500;BME280;20745;50.882;6.962;2022-07-29T08:34:23;100924.31;;;20.21;67.62
34500;BME280;20745;50.882;6.962;2022-07-29T08:36:54;100899.75;;;20.03;67.25
34500;BME280;20745;50.882;6.962;2022-07-29T08:39:30;100928.94;;;20.32;67.54
34500;BME280;20745;50.882;6.962;2022-07-29T08:41:57;100933.22;;;20.51;66.80
34500;BME280;20745;50.882;6.962;2022-07-29T08:44:24;100938.69;;;20.74;66.48
34500;BME280;20745;50.882;6.962;2022-07-29T08:46:57;100941.50;;;20.91;66.02
34500;BME280;20745;50.882;6.962;2022-07-29T08:49:34;100934.75;;;21.10;65.86
34500;BME280;20745;50.882;6.962;2022-07-29T08:52:02;100937.59;;;21.26;65.47
34500;BME280;20745;50.882;6.962;2022-07-29T08:54:30;100942.03;;;21.44;64.88
34500;BME280;20745;50.882;6.962;2022-07-29T08:56:58;100934.97;;;21.48;64.46
34500;BME280;20745;50.882;6.962;2022-07-29T08:59:27;100934.53;;;21.56;63.74
34500;BME280;20745;50.882;6.962;2022-07-29T09:01:57;100927.72;;;21.58;63.08
34500;BME280;20745;50.882;6.962;2022-07-29T09:04:30;100941.75;;;21.74;63.30
34500;BME280;20745;50.882;6.962;2022-07-29T09:07:03;100933.09;;;21.82;63.36
34500;BME280;20745;50.882;6.962;2022-07-29T09:09:33;100943.50;;;21.96;62.93
34500;BME280;20745;50.882;6.962;2022-07-29T09:12:00;100930.09;;;22.00;62.07
34500;BME280;20745;50.882;6.962;2022-07-29T09:14:27;100933.25;;;22.08;61.91
34500;BME280;20745;50.882;6.962;2022-07-29T09:17:02;100939.00;;;22.07;61.91
34500;BME280;20745;50.882;6.962;2022-07-29T09:19:31;100932.41;;;22.08;61.57
34500;BME280;20745;50.882;6.962;2022-07-29T09:22:00;100935.06;;;22.19;60.63
34500;BME280;20745;50.882;6.962;2022-07-29T09:24:54;100938.22;;;22.28;60.06
34500;BME280;20745;50.882;6.962;2022-07-29T09:27:24;100926.03;;;22.40;59.50
34500;BME280;20745;50.882;6.962;2022-07-29T09:30:09;100929.94;;;22.61;59.47
34500;BME280;20745;50.882;6.962;2022-07-29T09:32:58;100927.50;;;22.64;59.12
34500;BME280;20745;50.882;6.962;2022-07-29T09:35:27;100940.09;;;22.82;58.99
34500;BME280;20745;50.882;6.962;2022-07-29T09:37:55;100924.50;;;22.87;58.41
34500;BME280;20745;50.882;6.962;2022-07-29T09:40:24;100939.09;;;22.88;58.37
34500;BME280;20745;50.882;6.962;2022-07-29T09:42:53;100940.44;;;22.85;58.14
34500;BME280;20745;50.882;6.962;2022-07-29T09:45:28;100938.06;;;22.94;58.19
34500;BME280;20745;50.882;6.962;2022-07-29T09:47:56;100940.56;;;22.95;58.04
34500;BME280;20745;50.882;6.962;2022-07-29T09:50:40;100946.78;;;22.86;58.16
34500;BME280;20745;50.882;6.962;2022-07-29T09:53:08;100930.44;;;23.01;56.93
34500;BME280;20745;50.882;6.962;2022-07-29T09:55:50;100942.88;;;22.82;56.88
34500;BME280;20745;50.882;6.962;2022-07-29T09:58:19;100939.09;;;22.88;57.13
34500;BME280;20745;50.882;6.962;2022-07-29T10:00:48;100944.94;;;22.91;57.42
34500;BME280;20745;50.882;6.962;2022-07-29T10:03:17;100946.25;;;22.89;57.12
34500;BME280;20745;50.882;6.962;2022-07-29T10:05:45;100940.06;;;22.98;57.22
34500;BME280;20745;50.882;6.962;2022-07-29T10:08:13;100936.53;;;23.03;57.15
34500;BME280;20745;50.882;6.962;2022-07-29T10:10:42;100935.03;;;23.17;57.78
34500;BME280;20745;50.882;6.962;2022-07-29T10:13:15;100930.75;;;23.26;57.08
34500;BME280;20745;50.882;6.962;2022-07-29T10:15:44;100926.16;;;23.36;56.94
34500;BME280;20745;50.882;6.962;2022-07-29T10:18:14;100937.81;;;23.43;56.88
34500;BME280;20745;50.882;6.962;2022-07-29T10:20:44;100942.66;;;23.58;55.42
34500;BME280;20745;50.882;6.962;2022-07-29T10:23:11;100935.00;;;23.65;55.05
34500;BME280;20745;50.882;6.962;2022-07-29T10:25:39;100939.56;;;23.81;55.17
34500;BME280;20745;50.882;6.962;2022-07-29T10:28:12;100934.31;;;23.79;54.47
34500;BME280;20745;50.882;6.962;2022-07-29T10:30:44;100931.88;;;23.88;55.43
34500;BME280;20745;50.882;6.962;2022-07-29T10:35:59;100931.72;;;23.95;54.00
34500;BME280;20745;50.882;6.962;2022-07-29T10:44:16;100925.41;;;23.99;53.38
34500;BME280;20745;50.882;6.962;2022-07-29T10:46:49;100934.75;;;23.98;52.64
34500;BME280;20745;50.882;6.962;2022-07-29T10:49:18;100926.53;;;24.03;51.37
34500;BME280;20745;50.882;6.962;2022-07-29T10:54:18;100924.56;;;23.99;52.38
34500;BME280;20745;50.882;6.962;2022-07-29T10:56:46;100922.47;;;23.84;52.69
34500;BME280;20745;50.882;6.962;2022-07-29T11:01:49;100927.03;;;23.68;53.03
34500;BME280;20745;50.882;6.962;2022-07-29T11:07:13;100923.59;;;23.83;52.10
34500;BME280;20745;50.882;6.962;2022-07-29T11:09:43;100923.63;;;23.88;51.71
34500;BME280;20745;50.882;6.962;2022-07-29T11:15:09;100920.19;;;24.03;51.25
34500;BME280;20745;50.882;6.962;2022-07-29T11:23:30;100914.53;;;24.24;50.96
34500;BME280;20745;50.882;6.962;2022-07-29T11:28:59;100922.03;;;24.29;47.67
34500;BME280;20745;50.882;6.962;2022-07-29T11:31:44;100913.47;;;24.35;48.16
34500;BME280;20745;50.882;6.962;2022-07-29T11:34:26;100897.38;;;24.22;49.24
34500;BME280;20745;50.882;6.962;2022-07-29T11:39:40;100909.16;;;24.49;48.39
34500;BME280;20745;50.882;6.962;2022-07-29T11:47:54;100903.81;;;24.79;46.04
34500;BME280;20745;50.882;6.962;2022-07-29T11:50:36;100912.66;;;24.81;46.29
34500;BME280;20745;50.882;6.962;2022-07-29T11:53:16;100905.53;;;25.00;46.30
34500;BME280;20745;50.882;6.962;2022-07-29T11:56:01;100905.59;;;25.20;46.64
34500;BME280;20745;50.882;6.962;2022-07-29T11:58:30;100907.25;;;25.21;43.96
34500;BME280;20745;50.882;6.962;2022-07-29T12:01:17;100907.88;;;25.38;45.67
34500;BME280;20745;50.882;6.962;2022-07-29T12:03:46;100906.50;;;25.41;44.66
34500;BME280;20745;50.882;6.962;2022-07-29T12:06:33;100908.34;;;25.15;43.95
34500;BME280;20745;50.882;6.962;2022-07-29T12:09:08;100914.16;;;25.19;45.49
34500;BME280;20745;50.882;6.962;2022-07-29T12:11:40;100918.28;;;25.06;47.19
34500;BME280;20745;50.882;6.962;2022-07-29T12:14:30;100913.03;;;25.10;46.61
34500;BME280;20745;50.882;6.962;2022-07-29T12:17:30;100916.63;;;25.15;47.18
34500;BME280;20745;50.882;6.962;2022-07-29T12:20:06;100923.03;;;25.21;45.91
34500;BME280;20745;50.882;6.962;2022-07-29T12:22:36;100919.41;;;25.15;46.30
34500;BME280;20745;50.882;6.962;2022-07-29T12:25:07;100912.78;;;25.21;46.07
34500;BME280;20745;50.882;6.962;2022-07-29T12:28:06;100915.34;;;25.43;45.03
34500;BME280;20745;50.882;6.962;2022-07-29T12:30:47;100893.44;;;25.16;44.89
34500;BME280;20745;50.882;6.962;2022-07-29T12:33:23;100908.97;;;25.32;45.37
34500;BME280;20745;50.882;6.962;2022-07-29T12:35:53;100907.63;;;25.45;46.12
34500;BME280;20745;50.882;6.962;2022-07-29T12:38:37;100917.84;;;25.54;44.99
34500;BME280;20745;50.882;6.962;2022-07-29T12:41:07;100915.66;;;25.71;44.97
34500;BME280;20745;50.882;6.962;2022-07-29T12:43:53;100900.97;;;25.86;44.00
34500;BME280;20745;50.882;6.962;2022-07-29T12:46:21;100909.03;;;25.92;43.63
34500;BME280;20745;50.882;6.962;2022-07-29T12:48:52;100911.78;;;25.87;43.00
34500;BME280;20745;50.882;6.962;2022-07-29T12:51:32;100900.16;;;25.85;42.96
34500;BME280;20745;50.882;6.962;2022-07-29T12:54:18;100912.88;;;25.81;42.03
34500;BME280;20745;50.882;6.962;2022-07-29T12:56:46;100912.06;;;25.71;42.17
34500;BME280;20745;50.882;6.962;2022-07-29T12:59:21;100908.72;;;25.69;43.55
34500;BME280;20745;50.882;6.962;2022-07-29T13:01:52;100906.78;;;25.74;43.60
34500;BME280;20745;50.882;6.962;2022-07-29T13:07:04;100904.03;;;25.94;42.44
34500;BME280;20745;50.882;6.962;2022-07-29T13:09:44;100902.63;;;25.77;41.47
34500;BME280;20745;50.882;6.962;2022-07-29T13:12:14;100900.97;;;25.96;41.30
34500;BME280;20745;50.882;6.962;2022-07-29T13:14:44;100892.44;;;26.02;41.26
34500;BME280;20745;50.882;6.962;2022-07-29T13:17:16;100895.72;;;26.15;41.66
34500;BME280;20745;50.882;6.962;2022-07-29T13:19:52;100900.16;;;26.21;40.97
34500;BME280;20745;50.882;6.962;2022-07-29T13:22:20;100892.94;;;26.25;41.23
34500;BME280;20745;50.882;6.962;2022-07-29T13:24:58;100904.28;;;26.38;40.98
34500;BME280;20745;50.882;6.962;2022-07-29T13:27:33;100908.13;;;26.47;40.78
34500;BME280;20745;50.882;6.962;2022-07-29T13:30:06;100897.31;;;26.41;40.78
34500;BME280;20745;50.882;6.962;2022-07-29T13:32:33;100900.91;;;26.46;40.47
34500;BME280;20745;50.882;6.962;2022-07-29T13:35:06;100890.38;;;26.48;40.18
34500;BME280;20745;50.882;6.962;2022-07-29T13:37:34;100897.00;;;26.52;39.97
34500;BME280;20745;50.882;6.962;2022-07-29T13:40:23;100886.56;;;26.34;41.22
34500;BME280;20745;50.882;6.962;2022-07-29T13:42:51;100895.69;;;26.40;40.95
34500;BME280;20745;50.882;6.962;2022-07-29T13:45:18;100888.22;;;26.35;41.30
34500;BME280;20745;50.882;6.962;2022-07-29T13:47:48;100892.88;;;26.50;41.69
34500;BME280;20745;50.882;6.962;2022-07-29T13:50:33;100888.09;;;26.60;42.18
34500;BME280;20745;50.882;6.962;2022-07-29T13:53:01;100897.53;;;26.69;42.66
34500;BME280;20745;50.882;6.962;2022-07-29T13:55:33;100893.63;;;26.70;42.83
34500;BME280;20745;50.882;6.962;2022-07-29T13:58:00;100898.94;;;26.57;42.98